sensor_id;sensor_type;location;lat;lon;timestamp;pressure;altitude;pressure_sealevel;temperature;humidity
44839;BME280;30576;42.098;24.876;2023-02-11T00:00:39;101732.25;;;-4.05;56.62
44839;BME280;30576;42.098;24.876;2023-02-11T00:03:05;101737.31;;;-4.07;57.10
44839;BME280;30576;42.098;24.876;2023-02-11T00:05:33;101743.44;;;-4.17;57.29
44839;BME280;30576;42.098;24.876;2023-02-11T00:07:58;101738.88;;;-4.31;56.96
44839;BME280;30576;42.098;24.876;2023-02-11T00:10:27;101741.66;;;-4.40;57.50
44839;BME280;30576;42.098;24.876;2023-02-11T00:12:54;101754.66;;;-4.38;56.85
44839;BME280;30576;42.098;24.876;2023-02-11T00:15:23;101743.91;;;-4.33;57.25
44839;BME280;30576;42.098;24.876;2023-02-11T00:17:48;101748.84;;;-4.14;57.06
44839;BME280;30576;42.098;24.876;2023-02-11T00:20:16;101752.06;;;-3.82;56.42
44839;BME280;30576;42.098;24.876;2023-02-11T00:22:44;101749.19;;;-3.97;56.43
44839;BME280;30576;42.098;24.876;2023-02-11T00:25:25;101753.47;;;-3.98;56.27
44839;BME280;30576;42.098;24.876;2023-02-11T00:27:51;101749.41;;;-4.06;56.12
44839;BME280;30576;42.098;24.876;2023-02-11T00:30:18;101747.56;;;-4.19;56.79
44839;BME280;30576;42.098;24.876;2023-02-11T00:32:44;101752.47;;;-4.22;57.58
44839;BME280;30576;42.098;24.876;2023-02-11T00:35:09;101754.09;;;-4.12;56.61
44839;BME280;30576;42.098;24.876;2023-02-11T00:37:34;101753.19;;;-4.13;56.15
44839;BME280;30576;42.098;24.876;2023-02-11T00:40:03;101751.88;;;-4.07;55.86
44839;BME280;30576;42.098;24.876;2023-02-11T00:42:28;101748.94;;;-4.12;55.87
44839;BME280;30576;42.098;24.876;2023-02-11T00:44:56;101752.66;;;-4.08;55.77
44839;BME280;30576;42.098;24.876;2023-02-11T00:47:21;101750.34;;;-3.93;55.81
44839;BME280;30576;42.098;24.876;2023-02-11T00:49:47;101748.63;;;-4.05;55.65
44839;BME280;30576;42.098;24.876;2023-02-11T00:52:12;101742.06;;;-3.89;55.23
44839;BME280;30576;42.098;24.876;2023-02-11T00:54:38;101739.81;;;-3.97;55.83
44839;BME280;30576;42.098;24.876;2023-02-11T00:57:03;101738.75;;;-4.10;55.55
44839;BME280;30576;42.098;24.876;2023-02-11T00:59:28;101736.53;;;-4.28;56.27
44839;BME280;30576;42.098;24.876;2023-02-11T01:01:54;101739.00;;;-4.29;56.77
44839;BME280;30576;42.098;24.876;2023-02-11T01:04:19;101733.31;;;-4.25;56.56
44839;BME280;30576;42.098;24.876;2023-02-11T01:06:47;101733.84;;;-4.29;56.31
44839;BME280;30576;42.098;24.876;2023-02-11T01:09:12;101733.00;;;-4.40;56.41
44839;BME280;30576;42.098;24.876;2023-02-11T01:11:38;101731.22;;;-4.41;56.56
44839;BME280;30576;42.098;24.876;2023-02-11T01:14:03;101738.47;;;-4.47;56.84
44839;BME280;30576;42.098;24.876;2023-02-11T01:16:28;101729.59;;;-4.29;56.24
44839;BME280;30576;42.098;24.876;2023-02-11T01:18:54;101729.28;;;-4.22;56.10
44839;BME280;30576;42.098;24.876;2023-02-11T01:21:19;101724.47;;;-4.17;55.67
44839;BME280;30576;42.098;24.876;2023-02-11T01:23:47;101717.53;;;-4.18;55.85
44839;BME280;30576;42.098;24.876;2023-02-11T01:26:12;101714.25;;;-4.27;56.10
44839;BME280;30576;42.098;24.876;2023-02-11T01:28:38;101711.16;;;-4.45;56.74
44839;BME280;30576;42.098;24.876;2023-02-11T01:31:06;101718.28;;;-4.53;56.35
44839;BME280;30576;42.098;24.876;2023-02-11T01:33:34;101709.94;;;-4.61;57.45
44839;BME280;30576;42.098;24.876;2023-02-11T01:36:05;101706.53;;;-4.50;57.45
44839;BME280;30576;42.098;24.876;2023-02-11T01:38:33;101700.84;;;-4.45;57.38
44839;BME280;30576;42.098;24.876;2023-02-11T01:41:01;101699.59;;;-4.51;57.51
44839;BME280;30576;42.098;24.876;2023-02-11T01:43:28;101703.84;;;-4.51;57.00
44839;BME280;30576;42.098;24.876;2023-02-11T01:46:01;101700.84;;;-4.45;56.99
44839;BME280;30576;42.098;24.876;2023-02-11T01:48:38;101695.03;;;-4.43;57.09
44839;BME280;30576;42.098;24.876;2023-02-11T01:51:29;101694.81;;;-4.46;56.28
44839;BME280;30576;42.098;24.876;2023-02-11T01:53:56;101700.66;;;-4.59;56.03
44839;BME280;30576;42.098;24.876;2023-02-11T01:56:41;101710.38;;;-4.67;56.45
44839;BME280;30576;42.098;24.876;2023-02-11T01:59:36;101707.28;;;-4.95;57.54
44839;BME280;30576;42.098;24.876;2023-02-11T02:02:05;101699.94;;;-4.90;57.63
44839;BME280;30576;42.098;24.876;2023-02-11T02:04:37;101701.00;;;-4.98;57.97
44839;BME280;30576;42.098;24.876;2023-02-11T02:07:07;101701.06;;;-4.87;58.18
44839;BME280;30576;42.098;24.876;2023-02-11T02:09:41;101707.50;;;-4.81;58.63
44839;BME280;30576;42.098;24.876;2023-02-11T02:12:08;101705.78;;;-4.71;58.03
44839;BME280;30576;42.098;24.876;2023-02-11T02:14:36;101697.94;;;-4.72;58.50
44839;BME280;30576;42.098;24.876;2023-02-11T02:17:04;101696.06;;;-4.63;58.64
44839;BME280;30576;42.098;24.876;2023-02-11T02:25:27;101686.53;;;-4.86;59.23
44839;BME280;30576;42.098;24.876;2023-02-11T02:33:17;101712.78;;;-4.80;59.01
44839;BME280;30576;42.098;24.876;2023-02-11T02:35:50;101703.97;;;-4.94;59.00
44839;BME280;30576;42.098;24.876;2023-02-11T02:38:33;101708.38;;;-4.81;59.12
44839;BME280;30576;42.098;24.876;2023-02-11T02:41:03;101711.56;;;-4.73;59.60
44839;BME280;30576;42.098;24.876;2023-02-11T02:43:44;101711.81;;;-4.70;59.01
44839;BME280;30576;42.098;24.876;2023-02-11T02:46:43;101701.09;;;-4.64;59.42
44839;BME280;30576;42.098;24.876;2023-02-11T02:49:05;101700.81;;;-4.90;59.01
44839;BME280;30576;42.098;24.876;2023-02-11T02:51:43;101713.00;;;-4.77;59.12
44839;BME280;30576;42.098;24.876;2023-02-11T02:56:55;101710.56;;;-5.08;59.65
44839;BME280;30576;42.098;24.876;2023-02-11T03:04:40;101716.63;;;-4.85;58.85
44839;BME280;30576;42.098;24.876;2023-02-11T03:07:19;101718.09;;;-4.89;58.13
44839;BME280;30576;42.098;24.876;2023-02-11T03:12:17;101708.50;;;-5.01;58.54
44839;BME280;30576;42.098;24.876;2023-02-11T03:14:43;101711.47;;;-5.07;57.70
44839;BME280;30576;42.098;24.876;2023-02-11T03:17:12;101711.78;;;-5.25;57.84
44839;BME280;30576;42.098;24.876;2023-02-11T03:19:42;101711.13;;;-5.22;57.73
44839;BME280;30576;42.098;24.876;2023-02-11T03:22:13;101720.78;;;-5.19;58.25
44839;BME280;30576;42.098;24.876;2023-02-11T03:24:50;101712.28;;;-5.18;58.29
44839;BME280;30576;42.098;24.876;2023-02-11T03:27:29;101708.78;;;-5.19;57.97
44839;BME280;30576;42.098;24.876;2023-02-11T03:32:36;101714.81;;;-5.41;58.34
44839;BME280;30576;42.098;24.876;2023-02-11T03:35:11;101710.94;;;-5.46;58.34
44839;BME280;30576;42.098;24.876;2023-02-11T03:37:39;101712.38;;;-5.49;58.78
44839;BME280;30576;42.098;24.876;2023-02-11T03:40:11;101710.56;;;-5.50;58.32
44839;BME280;30576;42.098;24.876;2023-02-11T03:42:40;101710.22;;;-5.65;59.63
44839;BME280;30576;42.098;24.876;2023-02-11T03:45:08;101711.38;;;-5.51;59.46
44839;BME280;30576;42.098;24.876;2023-02-11T03:47:39;101713.63;;;-5.34;58.80
44839;BME280;30576;42.098;24.876;2023-02-11T03:50:09;101718.25;;;-5.30;58.50
44839;BME280;30576;42.098;24.876;2023-02-11T03:52:35;101719.41;;;-5.36;58.81
44839;BME280;30576;42.098;24.876;2023-02-11T03:55:02;101714.94;;;-5.39;58.62
44839;BME280;30576;42.098;24.876;2023-02-11T03:57:33;101711.13;;;-5.65;59.46
44839;BME280;30576;42.098;24.876;2023-02-11T03:59:58;101709.22;;;-5.78;59.68
44839;BME280;30576;42.098;24.876;2023-02-11T04:02:28;101711.50;;;-5.70;59.84
44839;BME280;30576;42.098;24.876;2023-02-11T04:04:55;101713.94;;;-5.72;60.46
44839;BME280;30576;42.098;24.876;2023-02-11T04:07:21;101710.34;;;-5.64;59.96
44839;BME280;30576;42.098;24.876;2023-02-11T04:09:48;101716.00;;;-5.68;59.21
44839;BME280;30576;42.098;24.876;2023-02-11T04:12:14;101709.19;;;-5.57;59.48
44839;BME280;30576;42.098;24.876;2023-02-11T04:14:39;101715.59;;;-5.52;59.56
44839;BME280;30576;42.098;24.876;2023-02-11T04:17:04;101715.19;;;-5.46;59.53
44839;BME280;30576;42.098;24.876;2023-02-11T04:19:30;101713.19;;;-5.61;59.61
44839;BME280;30576;42.098;24.876;2023-02-11T04:22:06;101708.91;;;-5.60;59.93
44839;BME280;30576;42.098;24.876;2023-02-11T04:24:31;101708.53;;;-5.54;59.98
44839;BME280;30576;42.098;24.876;2023-02-11T04:26:57;101704.91;;;-5.46;59.87
44839;BME280;30576;42.098;24.876;2023-02-11T04:29:25;101710.69;;;-5.49;60.24
44839;BME280;30576;42.098;24.876;2023-02-11T04:31:53;101705.66;;;-5.37;59.92
44839;BME280;30576;42.098;24.876;2023-02-11T04:34:18;101699.13;;;-5.54;60.15
44839;BME280;30576;42.098;24.876;2023-02-11T04:36:47;101699.69;;;-5.79;60.47
44839;BME280;30576;42.098;24.876;2023-02-11T04:39:12;101702.13;;;-5.90;60.71
44839;BME280;30576;42.098;24.876;2023-02-11T04:41:39;101694.94;;;-5.74;60.76
44839;BME280;30576;42.098;24.876;2023-02-11T04:44:07;101692.66;;;-6.12;62.11
44839;BME280;30576;42.098;24.876;2023-02-11T04:46:34;101697.81;;;-6.12;62.46
44839;BME280;30576;42.098;24.876;2023-02-11T04:49:02;101699.22;;;-6.16;61.70
44839;BME280;30576;42.098;24.876;2023-02-11T04:51:27;101688.56;;;-6.10;62.08
44839;BME280;30576;42.098;24.876;2023-02-11T04:54:00;101691.09;;;-5.89;61.43
44839;BME280;30576;42.098;24.876;2023-02-11T04:56:28;101687.97;;;-5.75;61.49
44839;BME280;30576;42.098;24.876;2023-02-11T04:58:53;101693.63;;;-5.69;61.32
44839;BME280;30576;42.098;24.876;2023-02-11T05:01:21;101686.72;;;-5.70;60.86
44839;BME280;30576;42.098;24.876;2023-02-11T05:03:47;101689.22;;;-5.49;60.70
44839;BME280;30576;42.098;24.876;2023-02-11T05:06:12;101698.13;;;-5.56;60.21
44839;BME280;30576;42.098;24.876;2023-02-11T05:08:37;101683.75;;;-5.74;60.49
44839;BME280;30576;42.098;24.876;2023-02-11T05:11:03;101686.28;;;-5.54;60.64
44839;BME280;30576;42.098;24.876;2023-02-11T05:13:28;101686.63;;;-5.39;60.06
44839;BME280;30576;42.098;24.876;2023-02-11T05:15:54;101689.47;;;-5.46;59.43
44839;BME280;30576;42.098;24.876;2023-02-11T05:18:19;101685.22;;;-5.46;59.70
44839;BME280;30576;42.098;24.876;2023-02-11T05:20:45;101687.97;;;-5.54;59.52
44839;BME280;30576;42.098;24.876;2023-02-11T05:23:10;101694.22;;;-5.41;59.90
44839;BME280;30576;42.098;24.876;2023-02-11T05:25:36;101693.34;;;-5.51;59.93
44839;BME280;30576;42.098;24.876;2023-02-11T05:28:01;101690.22;;;-5.37;59.83
44839;BME280;30576;42.098;24.876;2023-02-11T05:30:27;101696.44;;;-5.55;59.83
44839;BME280;30576;42.098;24.876;2023-02-11T05:32:52;101699.75;;;-5.99;60.77
44839;BME280;30576;42.098;24.876;2023-02-11T05:35:17;101697.31;;;-5.98;60.96
44839;BME280;30576;42.098;24.876;2023-02-11T05:37:43;101703.66;;;-5.72;61.28
44839;BME280;30576;42.098;24.876;2023-02-11T05:40:08;101696.19;;;-5.59;61.02
44839;BME280;30576;42.098;24.876;2023-02-11T05:42:33;101702.97;;;-5.38;60.35
44839;BME280;30576;42.098;24.876;2023-02-11T05:44:59;101705.16;;;-5.43;60.18
44839;BME280;30576;42.098;24.876;2023-02-11T05:47:24;101704.34;;;-5.32;60.15
44839;BME280;30576;42.098;24.876;2023-02-11T05:49:55;101711.78;;;-5.25;60.46
44839;BME280;30576;42.098;24.876;2023-02-11T05:52:21;101704.53;;;-5.41;60.31
44839;BME280;30576;42.098;24.876;2023-02-11T05:54:46;101711.28;;;-5.31;60.75
44839;BME280;30576;42.098;24.876;2023-02-11T05:57:12;101712.56;;;-5.26;60.93
44839;BME280;30576;42.098;24.876;2023-02-11T05:59:37;101710.69;;;-5.06;60.57
44839;BME280;30576;42.098;24.876;2023-02-11T06:02:02;101703.41;;;-4.90;59.93
44839;BME280;30576;42.098;24.876;2023-02-11T06:04:28;101705.84;;;-4.91;59.86
44839;BME280;30576;42.098;24.876;2023-02-11T06:06:53;101704.69;;;-4.84;60.07
44839;BME280;30576;42.098;24.876;2023-02-11T06:09:18;101702.16;;;-4.73;59.90
44839;BME280;30576;42.098;24.876;2023-02-11T06:11:44;101706.53;;;-4.72;60.13
44839;BME280;30576;42.098;24.876;2023-02-11T06:14:09;101700.78;;;-4.57;59.56
44839;BME280;30576;42.098;24.876;2023-02-11T06:16:36;101704.66;;;-4.40;59.29
44839;BME280;30576;42.098;24.876;2023-02-11T06:19:01;101702.91;;;-4.29;59.07
44839;BME280;30576;42.098;24.876;2023-02-11T06:21:27;101700.91;;;-4.00;58.41
44839;BME280;30576;42.098;24.876;2023-02-11T06:23:52;101702.28;;;-3.81;57.98
44839;BME280;30576;42.098;24.876;2023-02-11T06:26:18;101700.75;;;-3.67;57.07
44839;BME280;30576;42.098;24.876;2023-02-11T06:28:44;101705.88;;;-3.79;56.63
44839;BME280;30576;42.098;24.876;2023-02-11T06:31:09;101704.28;;;-3.77;56.81
44839;BME280;30576;42.098;24.876;2023-02-11T06:33:36;101707.94;;;-4.31;57.00
44839;BME280;30576;42.098;24.876;2023-02-11T06:36:02;101710.50;;;-4.43;58.06
44839;BME280;30576;42.098;24.876;2023-02-11T06:38:27;101701.28;;;-4.17;57.92
44839;BME280;30576;42.098;24.876;2023-02-11T06:40:52;101700.84;;;-4.11;57.23
44839;BME280;30576;42.098;24.876;2023-02-11T06:43:18;101701.47;;;-3.80;56.45
44839;BME280;30576;42.098;24.876;2023-02-11T06:45:43;101698.06;;;-3.33;56.54
44839;BME280;30576;42.098;24.876;2023-02-11T06:48:08;101703.97;;;-2.99;55.66
44839;BME280;30576;42.098;24.876;2023-02-11T06:50:34;101700.94;;;-3.17;55.18
44839;BME280;30576;42.098;24.876;2023-02-11T06:52:59;101701.84;;;-3.04;56.17
44839;BME280;30576;42.098;24.876;2023-02-11T06:55:24;101694.75;;;-2.58;55.67
44839;BME280;30576;42.098;24.876;2023-02-11T06:57:50;101699.28;;;-2.67;55.15
44839;BME280;30576;42.098;24.876;2023-02-11T07:00:15;101697.09;;;-2.75;55.09
44839;BME280;30576;42.098;24.876;2023-02-11T07:02:40;101684.84;;;-2.77;56.07
44839;BME280;30576;42.098;24.876;2023-02-11T07:05:06;101690.50;;;-2.07;55.07
44839;BME280;30576;42.098;24.876;2023-02-11T07:07:31;101686.44;;;-1.65;55.56
44839;BME280;30576;42.098;24.876;2023-02-11T07:09:57;101683.25;;;-1.34;53.69
44839;BME280;30576;42.098;24.876;2023-02-11T07:12:22;101692.63;;;-1.10;52.41
44839;BME280;30576;42.098;24.876;2023-02-11T07:14:47;101671.56;;;-1.01;52.27
44839;BME280;30576;42.098;24.876;2023-02-11T07:17:13;101680.16;;;-1.29;52.31
44839;BME280;30576;42.098;24.876;2023-02-11T07:19:38;101677.78;;;-1.39;52.70
44839;BME280;30576;42.098;24.876;2023-02-11T07:22:03;101679.28;;;-1.56;51.86
44839;BME280;30576;42.098;24.876;2023-02-11T07:24:29;101677.94;;;-1.63;51.95
44839;BME280;30576;42.098;24.876;2023-02-11T07:26:54;101682.72;;;-1.82;53.62
44839;BME280;30576;42.098;24.876;2023-02-11T07:29:19;101677.25;;;-1.73;54.31
44839;BME280;30576;42.098;24.876;2023-02-11T07:31:45;101678.38;;;-1.43;53.16
44839;BME280;30576;42.098;24.876;2023-02-11T07:34:10;101675.75;;;-1.83;53.20
44839;BME280;30576;42.098;24.876;2023-02-11T07:36:36;101669.13;;;-1.53;54.03
44839;BME280;30576;42.098;24.876;2023-02-11T07:39:01;101668.72;;;-1.32;53.54
44839;BME280;30576;42.098;24.876;2023-02-11T07:41:27;101662.50;;;-1.08;52.40
44839;BME280;30576;42.098;24.876;2023-02-11T07:43:52;101665.81;;;-1.23;52.40
44839;BME280;30576;42.098;24.876;2023-02-11T07:46:19;101665.13;;;-1.48;53.10
44839;BME280;30576;42.098;24.876;2023-02-11T07:48:45;101663.44;;;-1.34;53.09
44839;BME280;30576;42.098;24.876;2023-02-11T07:51:12;101652.03;;;-0.96;52.20
44839;BME280;30576;42.098;24.876;2023-02-11T07:53:37;101657.09;;;-0.56;51.00
44839;BME280;30576;42.098;24.876;2023-02-11T07:56:03;101657.66;;;-0.46;50.00
44839;BME280;30576;42.098;24.876;2023-02-11T07:58:29;101653.78;;;-0.53;51.50
44839;BME280;30576;42.098;24.876;2023-02-11T08:00:59;101655.38;;;-0.27;50.36
44839;BME280;30576;42.098;24.876;2023-02-11T08:03:24;101658.06;;;0.05;48.94
44839;BME280;30576;42.098;24.876;2023-02-11T08:05:49;101661.41;;;0.32;49.02
44839;BME280;30576;42.098;24.876;2023-02-11T08:08:15;101657.88;;;0.61;47.88
44839;BME280;30576;42.098;24.876;2023-02-11T08:10:41;101651.91;;;0.79;47.60
44839;BME280;30576;42.098;24.876;2023-02-11T08:13:07;101647.63;;;0.79;47.03
44839;BME280;30576;42.098;24.876;2023-02-11T08:15:32;101649.59;;;1.15;48.48
44839;BME280;30576;42.098;24.876;2023-02-11T08:17:57;101648.38;;;1.57;47.65
44839;BME280;30576;42.098;24.876;2023-02-11T08:20:22;101643.38;;;0.96;46.39
44839;BME280;30576;42.098;24.876;2023-02-11T08:22:48;101645.53;;;1.53;46.51
44839;BME280;30576;42.098;24.876;2023-02-11T08:25:13;101640.56;;;1.74;44.80
44839;BME280;30576;42.098;24.876;2023-02-11T08:27:38;101635.50;;;1.60;45.04
44839;BME280;30576;42.098;24.876;2023-02-11T08:30:04;101624.88;;;1.23;45.18
44839;BME280;30576;42.098;24.876;2023-02-11T08:32:29;101621.63;;;1.43;44.67
44839;BME280;30576;42.098;24.876;2023-02-11T08:34:55;101623.47;;;1.79;44.39
44839;BME280;30576;42.098;24.876;2023-02-11T08:37:20;101617.00;;;1.38;44.49
44839;BME280;30576;42.098;24.876;2023-02-11T08:39:46;101624.38;;;1.63;43.92
44839;BME280;30576;42.098;24.876;2023-02-11T08:42:12;101616.31;;;2.09;44.87
44839;BME280;30576;42.098;24.876;2023-02-11T08:44:39;101618.50;;;2.18;45.07
44839;BME280;30576;42.098;24.876;2023-02-11T08:47:04;101613.22;;;2.53;44.63
44839;BME280;30576;42.098;24.876;2023-02-11T08:49:30;101607.13;;;2.34;42.58
44839;BME280;30576;42.098;24.876;2023-02-11T08:51:56;101601.28;;;2.04;42.96
44839;BME280;30576;42.098;24.876;2023-02-11T08:54:26;101599.53;;;2.03;43.16
44839;BME280;30576;42.098;24.876;2023-02-11T08:56:51;101604.03;;;2.07;42.79
44839;BME280;30576;42.098;24.876;2023-02-11T08:59:16;101597.44;;;2.13;43.49
44839;BME280;30576;42.098;24.876;2023-02-11T09:01:42;101599.66;;;2.06;42.08
44839;BME280;30576;42.098;24.876;2023-02-11T09:04:08;101597.25;;;1.92;42.82
44839;BME280;30576;42.098;24.876;2023-02-11T09:06:34;101599.41;;;1.83;42.54
44839;BME280;30576;42.098;24.876;2023-02-11T09:08:59;101598.34;;;2.32;42.23
44839;BME280;30576;42.098;24.876;2023-02-11T09:11:27;101592.78;;;2.24;41.60
44839;BME280;30576;42.098;24.876;2023-02-11T09:13:52;101593.97;;;2.49;41.38
44839;BME280;30576;42.098;24.876;2023-02-11T09:16:22;101587.09;;;2.51;40.87
44839;BME280;30576;42.098;24.876;2023-02-11T09:18:48;101594.91;;;2.69;41.05
44839;BME280;30576;42.098;24.876;2023-02-11T09:21:14;101591.50;;;2.52;41.06
44839;BME280;30576;42.098;24.876;2023-02-11T09:23:40;101589.47;;;2.28;41.51
44839;BME280;30576;42.098;24.876;2023-02-11T09:26:15;101580.03;;;2.66;41.75
44839;BME280;30576;42.098;24.876;2023-02-11T09:28:40;101578.16;;;3.01;40.54
44839;BME280;30576;42.098;24.876;2023-02-11T09:31:06;101569.34;;;2.80;40.46
44839;BME280;30576;42.098;24.876;2023-02-11T09:33:32;101569.66;;;2.68;40.95
44839;BME280;30576;42.098;24.876;2023-02-11T09:36:04;101565.19;;;3.03;42.39
44839;BME280;30576;42.098;24.876;2023-02-11T09:38:30;101563.19;;;3.36;39.52
44839;BME280;30576;42.098;24.876;2023-02-11T09:40:56;101557.94;;;3.15;39.77
44839;BME280;30576;42.098;24.876;2023-02-11T09:43:22;101551.69;;;3.31;40.02
44839;BME280;30576;42.098;24.876;2023-02-11T09:45:48;101549.75;;;3.08;39.83
44839;BME280;30576;42.098;24.876;2023-02-11T09:48:16;101544.31;;;3.22;39.44
44839;BME280;30576;42.098;24.876;2023-02-11T09:50:42;101536.88;;;3.11;39.42
44839;BME280;30576;42.098;24.876;2023-02-11T09:55:39;101519.00;;;3.61;39.08
44839;BME280;30576;42.098;24.876;2023-02-11T09:58:10;101515.66;;;3.63;39.64
44839;BME280;30576;42.098;24.876;2023-02-11T10:00:39;101506.63;;;3.97;38.45
44839;BME280;30576;42.098;24.876;2023-02-11T10:05:47;101500.44;;;3.74;39.32
44839;BME280;30576;42.098;24.876;2023-02-11T10:08:23;101486.09;;;3.85;38.85
44839;BME280;30576;42.098;24.876;2023-02-11T10:10:53;101481.22;;;4.38;38.46
44839;BME280;30576;42.098;24.876;2023-02-11T10:13:31;101479.56;;;3.74;38.18
44839;BME280;30576;42.098;24.876;2023-02-11T10:16:13;101463.41;;;3.62;38.16
44839;BME280;30576;42.098;24.876;2023-02-11T10:19:01;101463.09;;;3.98;37.98
44839;BME280;30576;42.098;24.876;2023-02-11T10:24:01;101455.72;;;4.31;37.29
44839;BME280;30576;42.098;24.876;2023-02-11T10:26:29;101455.78;;;4.57;36.25
44839;BME280;30576;42.098;24.876;2023-02-11T10:28:54;101438.19;;;4.51;36.22
44839;BME280;30576;42.098;24.876;2023-02-11T10:31:24;101428.78;;;4.56;35.46
44839;BME280;30576;42.098;24.876;2023-02-11T10:36:24;101419.31;;;4.84;35.48
44839;BME280;30576;42.098;24.876;2023-02-11T10:38:51;101417.41;;;5.04;34.59
44839;BME280;30576;42.098;24.876;2023-02-11T10:41:17;101407.94;;;5.08;35.12
44839;BME280;30576;42.098;24.876;2023-02-11T10:43:44;101407.81;;;4.79;34.38
44839;BME280;30576;42.098;24.876;2023-02-11T10:46:13;101398.22;;;5.04;33.45
44839;BME280;30576;42.098;24.876;2023-02-11T10:48:47;101403.59;;;4.82;33.75
44839;BME280;30576;42.098;24.876;2023-02-11T10:51:18;101392.72;;;4.96;33.76
44839;BME280;30576;42.098;24.876;2023-02-11T10:53:44;101381.78;;;5.33;33.62
44839;BME280;30576;42.098;24.876;2023-02-11T10:56:20;101370.13;;;5.24;33.91
44839;BME280;30576;42.098;24.876;2023-02-11T10:58:57;101374.28;;;5.44;34.49
44839;BME280;30576;42.098;24.876;2023-02-11T11:01:23;101371.56;;;5.41;34.16
44839;BME280;30576;42.098;24.876;2023-02-11T11:04:01;101365.03;;;5.55;33.05
44839;BME280;30576;42.098;24.876;2023-02-11T11:06:29;101360.06;;;5.63;33.47
44839;BME280;30576;42.098;24.876;2023-02-11T11:08:55;101357.81;;;6.03;32.64
44839;BME280;30576;42.098;24.876;2023-02-11T11:11:22;101350.94;;;6.06;31.91
44839;BME280;30576;42.098;24.876;2023-02-11T11:16:24;101345.25;;;5.92;30.96
44839;BME280;30576;42.098;24.876;2023-02-11T11:18:51;101335.13;;;5.76;31.72
44839;BME280;30576;42.098;24.876;2023-02-11T11:23:57;101322.16;;;6.08;30.98
44839;BME280;30576;42.098;24.876;2023-02-11T11:26:24;101313.03;;;6.25;31.54
44839;BME280;30576;42.098;24.876;2023-02-11T11:28:53;101308.88;;;6.02;30.57
44839;BME280;30576;42.098;24.876;2023-02-11T11:31:24;101301.19;;;6.38;30.81
44839;BME280;30576;42.098;24.876;2023-02-11T11:33:51;101294.78;;;5.97;30.03
44839;BME280;30576;42.098;24.876;2023-02-11T11:36:37;101294.16;;;6.07;30.96
44839;BME280;30576;42.098;24.876;2023-02-11T11:39:14;101291.63;;;6.10;29.14
44839;BME280;30576;42.098;24.876;2023-02-11T11:41:48;101293.78;;;6.23;28.86
44839;BME280;30576;42.098;24.876;2023-02-11T11:46:43;101276.34;;;6.25;29.37
44839;BME280;30576;42.098;24.876;2023-02-11T11:49:26;101272.59;;;6.48;29.28
44839;BME280;30576;42.098;24.876;2023-02-11T11:51:59;101258.34;;;6.38;29.83
44839;BME280;30576;42.098;24.876;2023-02-11T11:54:27;101260.13;;;6.39;28.79
44839;BME280;30576;42.098;24.876;2023-02-11T11:56:59;101255.38;;;6.57;28.66
44839;BME280;30576;42.098;24.876;2023-02-11T11:59:26;101252.75;;;6.25;27.54
44839;BME280;30576;42.098;24.876;2023-02-11T12:04:39;101254.22;;;6.46;28.24
44839;BME280;30576;42.098;24.876;2023-02-11T12:22:56;101223.19;;;6.63;27.32
44839;BME280;30576;42.098;24.876;2023-02-11T12:32:58;101199.94;;;6.77;27.23
44839;BME280;30576;42.098;24.876;2023-02-11T12:55:47;101190.41;;;7.19;26.66
44839;BME280;30576;42.098;24.876;2023-02-11T12:58:17;101187.47;;;7.44;26.50
44839;BME280;30576;42.098;24.876;2023-02-11T13:00:50;101181.47;;;7.50;26.70
44839;BME280;30576;42.098;24.876;2023-02-11T13:03:19;101179.16;;;7.65;26.01
44839;BME280;30576;42.098;24.876;2023-02-11T13:06:21;101173.41;;;7.83;25.93
44839;BME280;30576;42.098;24.876;2023-02-11T13:08:42;101172.38;;;7.77;25.33
44839;BME280;30576;42.098;24.876;2023-02-11T13:13:46;101167.28;;;7.40;26.69
44839;BME280;30576;42.098;24.876;2023-02-11T13:18:51;101161.63;;;7.64;25.01
44839;BME280;30576;42.098;24.876;2023-02-11T13:31:32;101146.88;;;7.69;25.22
44839;BME280;30576;42.098;24.876;2023-02-11T13:33:58;101141.91;;;7.85;24.51
44839;BME280;30576;42.098;24.876;2023-02-11T13:36:24;101141.34;;;8.03;24.71
44839;BME280;30576;42.098;24.876;2023-02-11T13:38:55;101134.16;;;7.93;25.58
44839;BME280;30576;42.098;24.876;2023-02-11T13:43:56;101127.88;;;7.84;24.41
44839;BME280;30576;42.098;24.876;2023-02-11T13:46:22;101126.88;;;7.78;24.19
44839;BME280;30576;42.098;24.876;2023-02-11T13:48:49;101123.69;;;7.94;23.86
44839;BME280;30576;42.098;24.876;2023-02-11T13:51:17;101123.19;;;7.68;24.69
44839;BME280;30576;42.098;24.876;2023-02-11T13:54:01;101110.78;;;7.61;25.24
44839;BME280;30576;42.098;24.876;2023-02-11T13:58:55;101118.34;;;7.89;24.27
44839;BME280;30576;42.098;24.876;2023-02-11T14:04:20;101108.78;;;7.93;25.29
44839;BME280;30576;42.098;24.876;2023-02-11T14:07:27;101098.75;;;7.74;25.06
44839;BME280;30576;42.098;24.876;2023-02-11T14:15:39;101092.44;;;7.62;23.20
44839;BME280;30576;42.098;24.876;2023-02-11T14:20:48;101082.59;;;7.52;23.50
44839;BME280;30576;42.098;24.876;2023-02-11T14:23:21;101081.16;;;7.68;23.93
44839;BME280;30576;42.098;24.876;2023-02-11T14:25:56;101082.75;;;7.60;24.43
44839;BME280;30576;42.098;24.876;2023-02-11T14:28:25;101082.56;;;7.96;24.37
44839;BME280;30576;42.098;24.876;2023-02-11T14:41:42;101076.34;;;7.91;23.73
44839;BME280;30576;42.098;24.876;2023-02-11T14:44:18;101074.16;;;7.68;23.66
44839;BME280;30576;42.098;24.876;2023-02-11T14:46:48;101074.88;;;7.60;24.30
44839;BME280;30576;42.098;24.876;2023-02-11T14:49:37;101074.09;;;7.65;24.12
44839;BME280;30576;42.098;24.876;2023-02-11T14:52:12;101075.38;;;7.40;23.57
44839;BME280;30576;42.098;24.876;2023-02-11T14:54:41;101073.06;;;7.56;24.23
44839;BME280;30576;42.098;24.876;2023-02-11T14:59:36;101069.28;;;7.88;23.75
44839;BME280;30576;42.098;24.876;2023-02-11T15:02:02;101062.09;;;7.80;24.77